Time;durP1;ratioP1;P1;durP2;ratioP2;P2;SDS_P1;SDS_P2;PMS_P1;PMS_P2;Temp;Humidity;BMP_temperature;BMP_pressure;BME280_temperature;BME280_humidity;BME280_pressure;Samples;Min_cycle;Max_cycle;Signal;HPM_P1;HPM_P2
2022/09/07 00:01:02;;;;;;;6.33;2.73;;;;;;;10.62;51.80;99302.16;2224687;80;21315;-85
2022/09/07 00:04:03;;;;;;;9.63;3.30;;;;;;;10.56;51.94;99295.52;2224639;80;20964;-85
2022/09/07 00:07:03;;;;;;;6.10;3.10;;;;;;;10.53;51.96;99295.47;2224447;80;21355;-84
2022/09/07 00:10:04;;;;;;;6.67;3.17;;;;;;;10.51;52.00;99293.25;2224219;80;21005;-82
2022/09/07 00:13:04;;;;;;;4.53;2.70;;;;;;;10.45;52.33;99294.02;2224147;80;20923;-84
2022/09/07 00:16:05;;;;;;;5.77;2.93;;;;;;;10.43;52.25;99301.36;2223958;80;21044;-83
2022/09/07 00:19:05;;;;;;;4.63;2.87;;;;;;;10.39;52.41;99304.72;2224205;80;20931;-84
2022/09/07 00:22:05;;;;;;;5.70;2.83;;;;;;;10.37;52.59;99302.52;2223914;80;21304;-84
2022/09/07 00:25:06;;;;;;;5.63;3.00;;;;;;;10.32;52.54;99304.15;2223618;80;20904;-83
2022/09/07 00:28:06;;;;;;;6.97;2.93;;;;;;;10.28;52.88;99297.98;2223630;80;20876;-83
2022/09/07 00:31:07;;;;;;;9.87;3.23;;;;;;;10.27;52.76;99293.62;2221261;80;20884;-84
2022/09/07 00:34:07;;;;;;;6.63;3.00;;;;;;;10.24;52.71;99295.28;2221354;80;20933;-84
2022/09/07 00:37:07;;;;;;;8.43;3.20;;;;;;;10.20;52.98;99303.05;2220976;80;20896;-83
2022/09/07 00:40:08;;;;;;;9.07;3.20;;;;;;;10.20;53.05;99291.73;2220841;80;20939;-84
2022/09/07 00:43:08;;;;;;;7.27;2.90;;;;;;;10.18;53.25;99294.28;2221099;80;20927;-83
2022/09/07 00:46:09;;;;;;;6.87;3.30;;;;;;;10.14;53.33;99297.67;2221298;80;20904;-83
2022/09/07 00:49:09;;;;;;;4.87;3.20;;;;;;;10.12;53.40;99290.66;2220738;80;21338;-84
2022/09/07 00:52:09;;;;;;;6.07;2.83;;;;;;;10.08;53.54;99288.41;2221094;80;20919;-82
2022/09/07 00:55:10;;;;;;;9.67;4.27;;;;;;;10.05;53.67;99291.39;2221284;80;20919;-85
2022/09/07 00:58:10;;;;;;;20.80;8.80;;;;;;;10.03;53.62;99292.66;2221300;80;20928;-80
2022/09/07 01:01:11;;;;;;;12.17;4.23;;;;;;;10.02;53.86;99287.41;2221502;80;20987;-85
2022/09/07 01:04:11;;;;;;;9.27;3.20;;;;;;;10.00;53.76;99288.69;2221461;80;21215;-84
2022/09/07 01:07:11;;;;;;;5.00;3.10;;;;;;;9.98;53.88;99284.28;2221618;80;20959;-83
2022/09/07 01:10:13;;;;;;;8.00;2.90;;;;;;;9.96;53.81;99282.95;2221284;80;21004;-84
2022/09/07 01:13:13;;;;;;;5.53;2.90;;;;;;;9.97;54.08;99289.92;2221227;80;20904;-84
2022/09/07 01:16:13;;;;;;;6.27;3.00;;;;;;;9.95;54.18;99277.70;2221323;80;20947;-84
2022/09/07 01:19:13;;;;;;;11.07;3.20;;;;;;;9.90;53.93;99280.20;2221201;80;20967;-86
2022/09/07 01:22:13;;;;;;;5.63;3.37;;;;;;;9.89;54.00;99278.45;2221361;80;20968;-84
2022/09/07 01:25:14;;;;;;;4.37;2.77;;;;;;;9.87;54.13;99286.66;2221225;80;21308;-84
2022/09/07 01:28:14;;;;;;;4.70;2.83;;;;;;;9.83;54.23;99278.31;2221331;80;20896;-83
2022/09/07 01:31:15;;;;;;;10.93;2.97;;;;;;;9.74;54.47;99270.30;2223457;80;20928;-83
2022/09/07 01:34:15;;;;;;;4.47;2.90;;;;;;;9.74;54.47;99270.30;2223855;80;20916;-85
2022/09/07 01:37:15;;;;;;;7.27;3.60;;;;;;;9.74;54.57;99275.52;2223979;80;21005;-84
2022/09/07 01:40:16;;;;;;;3.20;2.47;;;;;;;9.71;54.58;99272.41;2223880;80;21015;-84
2022/09/07 01:43:16;;;;;;;6.00;3.00;;;;;;;9.72;54.74;99274.17;2224038;80;20972;-84
2022/09/07 01:46:17;;;;;;;3.87;2.87;;;;;;;9.71;54.84;99271.11;2224265;80;20915;-83
2022/09/07 01:49:17;;;;;;;5.47;2.73;;;;;;;9.70;54.84;99271.95;2223933;80;20924;-84
2022/09/07 01:52:18;;;;;;;77.60;9.40;;;;;;;9.67;54.76;99264.49;2223732;80;20967;-82
2022/09/07 01:55:18;;;;;;;4.63;2.83;;;;;;;9.66;54.97;99261.43;2224130;80;20959;-85
2022/09/07 01:58:18;;;;;;;7.20;3.20;;;;;;;9.64;54.91;99260.09;2224782;80;20947;-85
2022/09/07 02:01:19;;;;;;;22.50;6.93;;;;;;;9.61;55.06;99250.02;2224089;80;21363;-85
2022/09/07 02:04:19;;;;;;;17.93;4.53;;;;;;;10.19;59.46;99246.47;2224192;80;20936;-84
2022/09/07 02:07:20;;;;;;;8.37;3.13;;;;;;;12.41;54.82;99242.62;2224644;80;20924;-85
2022/09/07 02:10:20;;;;;;;39.10;4.83;;;;;;;12.15;51.03;99239.26;2224477;80;20971;-84
2022/09/07 02:13:20;;;;;;;4.07;2.77;;;;;;;11.41;51.32;99231.69;2224758;80;21276;-86
2022/09/07 02:16:21;;;;;;;5.27;2.83;;;;;;;10.94;51.88;99232.66;2224292;80;20911;-83
2022/09/07 02:19:21;;;;;;;7.43;2.90;;;;;;;10.59;52.52;99236.84;2224362;80;21272;-85
2022/09/07 02:22:22;;;;;;;9.13;3.70;;;;;;;10.33;53.04;99228.51;2224623;80;20944;-85
2022/09/07 02:25:24;;;;;;;5.00;3.10;;;;;;;10.10;53.58;99226.73;2224350;80;20888;-86
2022/09/07 02:28:24;;;;;;;24.67;4.20;;;;;;;9.93;54.29;99222.02;2215328;80;20944;-85
2022/09/07 02:31:25;;;;;;;31.83;4.10;;;;;;;9.80;54.52;99220.47;2228055;80;20987;-82
2022/09/07 02:34:25;;;;;;;6.93;3.27;;;;;;;9.71;54.83;99223.30;2228211;80;20888;-85
2022/09/07 02:37:26;;;;;;;4.77;2.93;;;;;;;9.62;55.11;99225.30;2228261;80;20903;-83
2022/09/07 02:40:26;;;;;;;6.53;3.00;;;;;;;9.50;55.20;99221.97;2227658;80;21406;-84
2022/09/07 02:43:26;;;;;;;4.43;3.10;;;;;;;9.47;55.55;99224.50;2227782;80;20895;-83
2022/09/07 02:46:27;;;;;;;8.20;3.17;;;;;;;9.38;55.71;99223.42;2227931;80;20868;-84
2022/09/07 02:49:27;;;;;;;4.90;3.27;;;;;;;9.33;55.96;99225.04;2227763;80;21260;-83
2022/09/07 02:52:28;;;;;;;8.00;3.47;;;;;;;9.26;56.07;99216.20;2227674;80;21327;-84
2022/09/07 02:55:28;;;;;;;55.20;26.77;;;;;;;9.17;56.28;99216.00;2227618;80;20959;-84
2022/09/07 02:58:28;;;;;;;1701.57;927.73;;;;;;;9.14;59.55;99212.02;2226881;80;20903;-86
2022/09/07 03:01:29;;;;;;;228.90;158.27;;;;;;;11.65;59.69;99204.12;2227750;80;20963;-83
2022/09/07 03:04:29;;;;;;;36.13;22.20;;;;;;;13.63;51.98;99196.91;2226511;80;20936;-87
2022/09/07 03:07:30;;;;;;;17.73;11.17;;;;;;;15.03;49.12;99197.34;2227025;80;20951;-82
2022/09/07 03:10:30;;;;;;;16.00;9.20;;;;;;;16.16;45.66;99182.61;2227041;80;20928;-83
2022/09/07 03:13:31;;;;;;;10.15;5.67;;;;;;;16.92;45.11;99187.88;2227022;80;20935;-83
2022/09/07 03:16:31;;;;;;;12.65;6.47;;;;;;;16.64;44.15;99195.96;2227303;80;20976;-79
2022/09/07 03:19:32;;;;;;;41.05;6.67;;;;;;;16.97;44.04;99188.27;2226849;80;20978;-82
2022/09/07 03:22:33;;;;;;;109.37;16.60;;;;;;;17.46;42.94;99189.16;2225986;80;20947;-83
2022/09/07 03:25:33;;;;;;;46.65;7.42;;;;;;;17.37;42.55;99192.77;2227135;80;20964;-80
2022/09/07 03:28:33;;;;;;;27.20;6.00;;;;;;;17.56;42.86;99192.13;2226851;80;20911;-78
2022/09/07 03:31:34;;;;;;;39.90;6.95;;;;;;;17.69;42.90;99192.45;2219851;80;20935;-85
2022/09/07 03:34:35;;;;;;;11.08;3.70;;;;;;;17.54;42.83;99197.87;2220193;80;20931;-84
2022/09/07 03:37:35;;;;;;;13.40;3.47;;;;;;;17.48;42.27;99195.30;2220087;80;20928;-85
2022/09/07 03:40:35;;;;;;;10.45;3.08;;;;;;;17.66;42.50;99196.45;2220532;80;21327;-86
2022/09/07 03:43:35;;;;;;;8.28;3.10;;;;;;;17.08;40.21;99193.00;2219711;80;21307;-85
2022/09/07 03:46:36;;;;;;;5.12;3.33;;;;;;;15.01;41.38;99196.47;2219977;80;20939;-83
2022/09/07 03:49:36;;;;;;;99.37;6.90;;;;;;;13.29;44.03;99208.52;2220530;80;20943;-83
2022/09/07 03:52:37;;;;;;;6.53;3.52;;;;;;;12.12;47.21;99217.39;2220306;80;21375;-84
2022/09/07 03:55:37;;;;;;;6.33;3.58;;;;;;;11.48;48.19;99220.89;2219909;80;20885;-84
2022/09/07 03:58:37;;;;;;;4.65;3.20;;;;;;;10.80;49.82;99216.33;2218982;80;20947;-83
2022/09/07 04:01:38;;;;;;;7.00;3.87;;;;;;;10.08;51.39;99212.78;2219311;80;20986;-83
2022/09/07 04:04:38;;;;;;;13.57;3.40;;;;;;;9.52;52.98;99217.66;2218867;80;20904;-84
2022/09/07 04:07:39;;;;;;;5.83;3.50;;;;;;;9.15;53.94;99222.89;2218825;80;20911;-83
2022/09/07 04:10:39;;;;;;;10.80;3.70;;;;;;;8.93;55.29;99213.69;2219048;80;21387;-84
2022/09/07 04:13:40;;;;;;;7.17;3.40;;;;;;;8.63;56.06;99215.97;2219193;80;20908;-83
2022/09/07 04:16:40;;;;;;;5.03;3.20;;;;;;;8.35;56.84;99210.89;2218855;80;20959;-84
2022/09/07 04:19:40;;;;;;;3.87;2.97;;;;;;;8.16;57.72;99208.61;2219356;80;20942;-83
2022/09/07 04:22:42;;;;;;;127.40;10.87;;;;;;;7.99;58.40;99213.34;2218728;80;20967;-85
2022/09/07 04:25:41;;;;;;;7.97;3.47;;;;;;;7.88;59.31;99230.36;2218654;80;20963;-84
2022/09/07 04:28:41;;;;;;;5.27;3.47;;;;;;;7.85;59.99;99233.75;2218644;80;20919;-83
2022/09/07 04:31:42;;;;;;;7.43;3.30;;;;;;;7.79;60.17;99228.34;2221241;80;21026;-83
2022/09/07 04:34:42;;;;;;;5.47;2.90;;;;;;;7.62;60.77;99218.76;2222271;80;21303;-84
2022/09/07 04:37:43;;;;;;;7.30;3.37;;;;;;;7.51;61.26;99212.78;2222674;80;20994;-83
2022/09/07 04:40:43;;;;;;;6.50;3.40;;;;;;;7.47;61.68;99217.01;2221382;80;21006;-83
2022/09/07 04:43:44;;;;;;;6.63;3.47;;;;;;;7.50;62.10;99221.00;2220868;80;21639;-82
2022/09/07 04:46:44;;;;;;;13.43;3.43;;;;;;;7.59;62.40;99225.16;2221127;80;20899;-82
2022/09/07 04:49:44;;;;;;;439.03;33.37;;;;;;;7.67;62.96;99226.27;2221262;80;20935;-81
2022/09/07 04:52:45;;;;;;;10.63;4.00;;;;;;;7.78;63.24;99219.20;2220234;80;20983;-83
2022/09/07 04:55:45;;;;;;;9.37;4.20;;;;;;;7.84;63.38;99215.09;2220759;80;20971;-80
2022/09/07 04:58:46;;;;;;;15.97;6.00;;;;;;;7.98;63.53;99218.08;2221457;80;21248;-82
2022/09/07 05:01:46;;;;;;;7.23;4.43;;;;;;;8.14;63.83;99222.87;2221270;80;20963;-81
2022/09/07 05:04:47;;;;;;;401.07;30.03;;;;;;;8.28;63.71;99220.22;2220816;80;20951;-79
2022/09/07 05:07:47;;;;;;;50.57;6.23;;;;;;;8.37;64.03;99222.22;2220636;80;21643;-82
2022/09/07 05:10:47;;;;;;;25.33;5.57;;;;;;;8.48;64.00;99212.97;2221379;80;20908;-83
2022/09/07 05:13:48;;;;;;;10.80;3.83;;;;;;;8.67;64.03;99213.05;2221314;80;20935;-82
2022/09/07 05:16:50;;;;;;;47.70;5.37;;;;;;;8.86;63.98;99213.97;2193055;80;20943;-81
2022/09/07 05:19:50;;;;;;;10.27;3.87;;;;;;;9.05;63.55;99211.38;2221670;80;21288;-81
2022/09/07 05:22:51;;;;;;;6.53;3.60;;;;;;;9.31;63.38;99206.77;2221260;80;21030;-83
2022/09/07 05:25:51;;;;;;;10.63;3.80;;;;;;;9.50;63.29;99205.45;2220556;80;20904;-80
2022/09/07 05:28:52;;;;;;;5.87;3.20;;;;;;;9.74;63.00;99202.52;2220551;80;21347;-82
2022/09/07 05:31:53;;;;;;;11.23;4.03;;;;;;;9.93;62.61;99196.83;2221050;80;20991;-83
2022/09/07 05:34:52;;;;;;;6.77;4.00;;;;;;;10.21;62.00;99193.94;2221962;80;20899;-81
2022/09/07 05:37:53;;;;;;;13.00;4.10;;;;;;;10.53;61.21;99189.33;2222990;80;21268;-82
2022/09/07 05:40:53;;;;;;;6.07;3.40;;;;;;;10.87;60.31;99193.81;2224004;80;20990;-81
2022/09/07 05:43:54;;;;;;;9.07;4.30;;;;;;;11.17;59.28;99192.09;2221666;80;20908;-79
2022/09/07 05:46:54;;;;;;;28.60;5.87;;;;;;;11.46;59.55;99196.47;2221747;80;20943;-83
2022/09/07 05:49:54;;;;;;;15.43;5.07;;;;;;;11.79;58.29;99195.63;2223480;80;20940;-83
2022/09/07 05:52:55;;;;;;;19.52;4.90;;;;;;;11.97;57.79;99200.21;2222399;80;20959;-83
2022/09/07 05:55:55;;;;;;;6.90;4.17;;;;;;;12.16;57.35;99200.45;2221634;80;21553;-85
2022/09/07 05:58:56;;;;;;;51.23;7.50;;;;;;;12.36;56.55;99187.15;2222285;80;20923;-83
2022/09/07 06:01:56;;;;;;;7.75;4.28;;;;;;;12.56;56.34;99187.34;2221519;80;20903;-84
2022/09/07 06:04:56;;;;;;;11.40;4.00;;;;;;;12.79;56.13;99190.16;2221248;80;21019;-82
2022/09/07 06:07:57;;;;;;;10.38;4.40;;;;;;;13.03;55.87;99188.64;2221148;80;21331;-83
2022/09/07 06:10:57;;;;;;;7.92;5.03;;;;;;;13.20;54.70;99183.55;2220978;80;20904;-84
2022/09/07 06:13:58;;;;;;;9.25;4.78;;;;;;;13.39;54.88;99192.41;2220800;80;20991;-82
2022/09/07 06:16:58;;;;;;;11.60;4.92;;;;;;;13.60;54.03;99194.28;2220695;80;20928;-82
2022/09/07 06:19:58;;;;;;;10.40;4.90;;;;;;;13.80;53.85;99193.06;2221113;80;20939;-83
2022/09/07 06:22:59;;;;;;;20.97;5.53;;;;;;;13.96;53.29;99189.66;2220204;80;21438;-83
2022/09/07 06:25:59;;;;;;;19.60;5.80;;;;;;;14.19;53.52;99185.80;2220961;80;20928;-83
2022/09/07 06:29:00;;;;;;;16.40;5.50;;;;;;;14.44;53.09;99178.88;2220701;80;20907;-84
2022/09/07 06:32:00;;;;;;;10.15;5.45;;;;;;;14.65;52.45;99178.91;2220437;80;20904;-81
2022/09/07 06:35:03;;;;;;;10.85;5.10;;;;;;;14.88;51.87;99181.58;2188796;80;20888;-83
2022/09/07 06:38:03;;;;;;;14.30;5.70;;;;;;;15.08;51.55;99193.39;2221151;80;20903;-82
2022/09/07 06:41:03;;;;;;;15.58;5.65;;;;;;;15.29;50.92;99188.11;2221276;80;20995;-83
2022/09/07 06:44:04;;;;;;;10.65;5.83;;;;;;;15.43;50.13;99188.96;2220362;80;21025;-83
2022/09/07 06:47:04;;;;;;;17.30;6.30;;;;;;;15.45;49.56;99188.52;2220791;80;20947;-82
2022/09/07 06:50:05;;;;;;;12.37;6.45;;;;;;;15.44;49.75;99191.15;2221180;80;20872;-83
2022/09/07 06:53:05;;;;;;;9.93;5.35;;;;;;;15.55;49.17;99189.38;2220727;80;20978;-82
2022/09/07 06:56:05;;;;;;;8.60;5.50;;;;;;;15.69;49.29;99194.66;2221703;80;20904;-82
2022/09/07 06:59:06;;;;;;;11.83;5.45;;;;;;;15.88;49.27;99191.95;2221442;80;20956;-82
2022/09/07 07:02:06;;;;;;;10.72;5.80;;;;;;;16.15;49.18;99188.77;2221205;80;20896;-82
2022/09/07 07:05:07;;;;;;;10.80;6.00;;;;;;;16.29;48.93;99188.25;2220951;80;21307;-82
2022/09/07 07:08:07;;;;;;;12.00;5.90;;;;;;;16.50;49.21;99188.15;2220699;80;20911;-83
2022/09/07 07:11:07;;;;;;;10.28;6.15;;;;;;;16.71;48.28;99187.16;2220062;80;20935;-82
2022/09/07 07:14:08;;;;;;;9.98;5.33;;;;;;;16.88;48.05;99193.17;2220355;80;21364;-81
2022/09/07 07:17:08;;;;;;;10.20;5.75;;;;;;;17.08;47.58;99185.09;2220427;80;20964;-83
2022/09/07 07:20:09;;;;;;;28.32;7.30;;;;;;;17.29;47.12;99181.83;2220302;80;21267;-81
2022/09/07 07:23:09;;;;;;;16.48;6.83;;;;;;;17.46;47.50;99176.84;2221235;80;21032;-82
2022/09/07 07:26:10;;;;;;;9.48;6.28;;;;;;;17.59;47.10;99174.94;2221474;80;20896;-82
2022/09/07 07:29:10;;;;;;;32.55;8.48;;;;;;;17.78;47.33;99178.27;2220885;80;21315;-81
2022/09/07 07:32:10;;;;;;;13.30;5.58;;;;;;;17.97;46.95;99180.24;2218232;80;20991;-80
2022/09/07 07:35:11;;;;;;;20.25;5.95;;;;;;;18.09;46.20;99176.13;2218357;80;21331;-85
2022/09/07 07:38:11;;;;;;;13.00;5.72;;;;;;;18.21;46.27;99180.41;2217767;80;20926;-83
2022/09/07 07:41:12;;;;;;;15.70;5.28;;;;;;;18.32;45.89;99185.09;2218048;80;20927;-83
2022/09/07 07:44:12;;;;;;;24.92;5.97;;;;;;;18.38;45.21;99179.27;2217444;80;21312;-84
2022/09/07 07:47:12;;;;;;;10.15;5.17;;;;;;;18.45;45.76;99180.05;2217771;80;20908;-84
2022/09/07 07:50:13;;;;;;;23.35;5.87;;;;;;;18.63;46.00;99177.17;2217822;80;20975;-83
2022/09/07 07:53:13;;;;;;;79.42;10.88;;;;;;;18.76;45.53;99171.24;2218227;80;20955;-84
2022/09/07 07:56:14;;;;;;;9.83;5.22;;;;;;;18.87;44.80;99169.30;2218037;80;20959;-84
2022/09/07 07:59:20;;;;;;;68.25;8.20;;;;;;;18.91;44.96;99170.99;2218623;80;20955;-84
2022/09/07 08:02:20;;;;;;;9.23;4.97;;;;;;;19.02;45.05;99165.07;2218448;80;20967;-83
2022/09/07 08:05:21;;;;;;;200.62;19.60;;;;;;;19.22;45.28;99166.52;2217859;80;20900;-84
2022/09/07 08:08:21;;;;;;;19.37;5.45;;;;;;;19.43;44.59;99165.26;2218215;80;20912;-83
2022/09/07 08:11:22;;;;;;;6.45;4.00;;;;;;;19.51;44.48;99169.96;2217587;80;21338;-84
2022/09/07 08:14:22;;;;;;;12.05;4.78;;;;;;;19.61;43.81;99167.14;2216527;80;21568;-84
2022/09/07 08:17:22;;;;;;;9.80;4.33;;;;;;;19.57;43.40;99158.83;2217030;80;20959;-84
2022/09/07 08:20:23;;;;;;;6.83;4.55;;;;;;;19.73;43.25;99158.08;2217528;80;20903;-84
2022/09/07 08:23:23;;;;;;;6.97;4.37;;;;;;;19.90;43.32;99155.08;2217489;80;21011;-84
2022/09/07 08:26:24;;;;;;;7.83;4.20;;;;;;;20.12;43.37;99159.51;2217583;80;21042;-81
2022/09/07 08:29:24;;;;;;;8.35;4.75;;;;;;;20.20;41.68;99152.27;2219324;80;20939;-83
2022/09/07 08:32:24;;;;;;;5.43;4.30;;;;;;;20.20;41.84;99156.23;2220147;80;20990;-81
2022/09/07 08:35:25;;;;;;;269.90;31.33;;;;;;;20.35;41.65;99154.56;2221392;80;21309;-81
2022/09/07 08:38:25;;;;;;;65.75;9.05;;;;;;;20.51;42.17;99157.77;2221332;80;20947;-83
2022/09/07 08:41:26;;;;;;;12.45;4.67;;;;;;;20.62;41.50;99150.44;2220694;80;20935;-83
2022/09/07 08:44:26;;;;;;;5.62;3.87;;;;;;;20.78;40.92;99150.94;2220923;80;20923;-83
2022/09/07 08:47:27;;;;;;;7.72;4.58;;;;;;;20.96;40.94;99157.14;2221202;80;20923;-81
2022/09/07 08:50:28;;;;;;;4.78;4.00;;;;;;;20.98;40.65;99153.54;2222007;80;21288;-83
2022/09/07 08:53:27;;;;;;;9.40;4.00;;;;;;;21.01;40.50;99147.73;2222643;80;21046;-83
2022/09/07 08:56:28;;;;;;;8.43;3.58;;;;;;;21.15;39.64;99141.62;2221355;80;20951;-84
2022/09/07 08:59:28;;;;;;;10.63;3.65;;;;;;;21.15;38.54;99135.85;2221870;80;20952;-82
2022/09/07 09:02:29;;;;;;;6.28;3.72;;;;;;;21.03;39.13;99145.47;2221641;80;20912;-81
2022/09/07 09:05:29;;;;;;;11.08;3.50;;;;;;;21.03;38.38;99133.52;2222030;80;21353;-84
2022/09/07 09:08:29;;;;;;;9.25;3.58;;;;;;;21.05;39.12;99146.75;2221436;80;21365;-82
2022/09/07 09:11:30;;;;;;;10.35;3.70;;;;;;;21.15;38.58;99142.48;2220857;80;21431;-83
2022/09/07 09:14:30;;;;;;;6.10;3.50;;;;;;;21.28;38.67;99144.40;2221585;80;20912;-79
2022/09/07 09:17:31;;;;;;;6.83;3.42;;;;;;;21.40;37.49;99138.76;2220669;80;20912;-78
2022/09/07 09:20:31;;;;;;;6.83;3.62;;;;;;;21.42;37.62;99136.93;2221540;80;21089;-83
2022/09/07 09:23:31;;;;;;;6.55;3.42;;;;;;;21.50;37.75;99138.92;2221607;80;21007;-81
2022/09/07 09:26:32;;;;;;;5.50;3.30;;;;;;;21.60;37.26;99133.77;2220949;80;20919;-83
2022/09/07 09:29:33;;;;;;;5.15;3.35;;;;;;;21.74;37.69;99136.52;2220967;80;21390;-82
2022/09/07 09:32:33;;;;;;;5.03;3.33;;;;;;;21.88;37.41;99132.55;2220909;80;20999;-82
2022/09/07 09:35:33;;;;;;;9.03;3.52;;;;;;;21.94;37.23;99123.52;2221211;80;20892;-82
2022/09/07 09:38:34;;;;;;;322.17;35.63;;;;;;;22.15;36.92;99128.69;2221682;80;20950;-79
2022/09/07 09:41:34;;;;;;;9.20;3.95;;;;;;;22.19;37.77;99126.34;2222255;80;21375;-83
2022/09/07 09:44:37;;;;;;;3.77;2.70;;;;;;;22.29;35.37;99122.94;2221208;80;20883;-82
2022/09/07 09:47:35;;;;;;;8.65;3.47;;;;;;;22.33;36.20;99124.59;2221837;80;20903;-82
2022/09/07 09:50:38;;;;;;;6.75;3.00;;;;;;;22.39;35.47;99133.70;2103556;84;21015;-83
2022/09/07 09:53:37;;;;;;;8.03;2.83;;;;;;;22.41;35.68;99123.42;2103441;85;21407;-83
2022/09/07 09:56:38;;;;;;;11.78;3.20;;;;;;;22.47;35.76;99127.68;2102699;85;21337;-82
2022/09/07 09:59:38;;;;;;;7.97;3.37;;;;;;;22.56;35.52;99126.09;2101896;85;21035;-83
2022/09/07 10:02:39;;;;;;;11.22;3.58;;;;;;;22.48;35.49;99124.10;2102025;85;20960;-83
2022/09/07 10:05:39;;;;;;;7.72;3.20;;;;;;;22.50;34.96;99115.16;2102725;85;20973;-82
2022/09/07 10:08:39;;;;;;;8.53;3.30;;;;;;;22.69;34.93;99115.92;2103288;85;21003;-82
2022/09/07 10:11:40;;;;;;;10.20;3.30;;;;;;;22.80;35.13;99119.13;2102923;85;20940;-83
2022/09/07 10:14:40;;;;;;;5.33;3.22;;;;;;;22.88;35.17;99115.75;2102734;85;20996;-83
2022/09/07 10:17:41;;;;;;;8.38;2.83;;;;;;;22.90;34.73;99114.36;2103724;85;20955;-84
2022/09/07 10:20:41;;;;;;;3.77;3.00;;;;;;;22.86;34.64;99113.14;2103066;85;20985;-83
2022/09/07 10:23:42;;;;;;;5.58;3.40;;;;;;;22.76;34.70;99110.34;2103206;85;21023;-82
2022/09/07 10:26:43;;;;;;;37.60;5.30;;;;;;;22.73;34.68;99101.13;2103679;85;20971;-81
2022/09/07 10:29:42;;;;;;;54.98;6.58;;;;;;;22.81;34.38;99103.56;2103967;85;20987;-83
2022/09/07 10:32:43;;;;;;;6.62;3.37;;;;;;;22.99;35.05;99102.94;2077868;85;21057;-84
2022/09/07 10:35:43;;;;;;;10.03;3.62;;;;;;;23.19;34.69;99096.92;2068602;86;20947;-85
2022/09/07 10:38:44;;;;;;;4.70;3.02;;;;;;;23.21;34.40;99101.73;2068930;86;20998;-83
2022/09/07 10:41:44;;;;;;;7.40;3.12;;;;;;;23.17;34.46;99098.77;2068715;86;21076;-84
2022/09/07 10:44:44;;;;;;;8.30;3.85;;;;;;;23.25;33.73;99099.38;2068665;86;20928;-83
2022/09/07 10:47:45;;;;;;;5.42;3.20;;;;;;;23.30;34.17;99094.75;2145954;82;20939;-83
2022/09/07 10:50:45;;;;;;;7.00;3.62;;;;;;;23.28;34.61;99098.39;2178463;82;20896;-82
2022/09/07 10:53:46;;;;;;;8.50;3.45;;;;;;;23.16;34.42;99085.92;2178245;82;21462;-83
2022/09/07 10:56:46;;;;;;;7.47;3.60;;;;;;;23.17;34.82;99082.80;2178592;82;20920;-83
2022/09/07 10:59:46;;;;;;;8.75;3.30;;;;;;;23.26;34.22;99079.80;2179422;82;20974;-83
2022/09/07 11:02:47;;;;;;;4.65;3.17;;;;;;;23.38;34.13;99082.03;2179875;82;20960;-82
2022/09/07 11:05:47;;;;;;;10.13;4.08;;;;;;;23.53;34.28;99076.63;2179322;82;20932;-83
2022/09/07 11:08:48;;;;;;;3.87;3.10;;;;;;;23.55;34.29;99069.48;2180068;82;21329;-85
2022/09/07 11:11:48;;;;;;;5.83;3.27;;;;;;;23.57;33.89;99075.62;2179888;82;20952;-85
2022/09/07 11:14:49;;;;;;;5.72;3.22;;;;;;;23.72;33.07;99070.19;2180261;82;20924;-83
2022/09/07 11:17:49;;;;;;;5.58;3.37;;;;;;;23.68;33.54;99065.90;2180482;82;20992;-84
2022/09/07 11:20:53;;;;;;;6.67;3.45;;;;;;;23.68;33.51;99065.90;2179861;82;21458;-84
2022/09/07 11:23:50;;;;;;;6.25;3.47;;;;;;;23.71;33.39;99060.45;2179525;82;20932;-83
2022/09/07 11:26:51;;;;;;;13.78;3.92;;;;;;;23.79;33.56;99064.56;2179683;82;20924;-85
2022/09/07 11:29:51;;;;;;;30.00;4.55;;;;;;;23.81;33.29;99055.17;2179906;82;20924;-84
2022/09/07 11:32:51;;;;;;;5.58;3.25;;;;;;;23.76;33.08;99055.81;2206590;80;20972;-81
2022/09/07 11:35:51;;;;;;;8.58;3.40;;;;;;;23.76;32.91;99054.48;2218639;80;20931;-84
2022/09/07 11:38:52;;;;;;;24.72;4.22;;;;;;;23.79;33.44;99056.56;2218969;80;20928;-84
2022/09/07 11:41:52;;;;;;;5.37;3.75;;;;;;;23.89;33.45;99049.08;2219484;80;20959;-78
2022/09/07 11:44:53;;;;;;;9.80;3.52;;;;;;;23.99;32.32;99053.12;2216418;80;21032;-78
2022/09/07 11:47:53;;;;;;;16.80;3.58;;;;;;;24.11;32.42;99049.11;2218319;80;20880;-84
2022/09/07 11:50:53;;;;;;;7.58;3.30;;;;;;;24.14;32.45;99044.52;2220064;80;20900;-83
2022/09/07 11:53:54;;;;;;;7.08;2.90;;;;;;;24.26;32.40;99048.95;2220213;80;20908;-85
2022/09/07 11:56:54;;;;;;;6.12;3.25;;;;;;;24.20;32.30;99046.53;2219473;80;20915;-84
2022/09/07 11:59:55;;;;;;;4.90;3.12;;;;;;;24.21;32.26;99036.27;2219383;80;20939;-84
2022/09/07 12:02:55;;;;;;;4.90;3.27;;;;;;;24.30;31.47;99032.83;2218327;80;21406;-83
2022/09/07 12:05:55;;;;;;;5.58;3.08;;;;;;;24.12;31.27;99033.51;2219687;80;20904;-83
2022/09/07 12:08:56;;;;;;;3.37;2.87;;;;;;;24.08;32.68;99028.77;2218478;80;20928;-83
2022/09/07 12:11:56;;;;;;;8.33;3.37;;;;;;;23.99;32.46;99025.59;2218385;80;20955;-84
2022/09/07 12:14:57;;;;;;;5.25;3.52;;;;;;;23.98;32.23;99022.06;2217555;80;20907;-83
2022/09/07 12:17:57;;;;;;;4.42;2.98;;;;;;;23.92;32.06;99022.30;2217062;80;20873;-85
2022/09/07 12:20:58;;;;;;;4.35;3.02;;;;;;;23.96;31.97;99019.05;2217125;80;20987;-84
2022/09/07 12:23:58;;;;;;;9.48;3.37;;;;;;;23.97;31.83;99014.12;2215969;80;20908;-85
2022/09/07 12:26:58;;;;;;;7.33;3.22;;;;;;;24.03;32.08;99016.08;2216444;80;20947;-84
2022/09/07 12:30:00;;;;;;;6.45;3.33;;;;;;;24.03;32.12;99008.08;2216907;80;20900;-85
2022/09/07 12:33:03;;;;;;;3.65;3.02;;;;;;;24.11;31.89;99007.30;2219086;80;21379;-83
2022/09/07 12:36:00;;;;;;;4.08;2.65;;;;;;;24.17;31.80;99003.98;2219679;80;21291;-84
2022/09/07 12:39:00;;;;;;;6.75;3.22;;;;;;;24.30;31.84;99001.28;2219472;80;20947;-84
2022/09/07 12:42:00;;;;;;;5.92;3.35;;;;;;;24.22;31.94;99004.20;2220589;80;20931;-83
2022/09/07 12:45:01;;;;;;;5.37;2.87;;;;;;;24.18;31.48;99005.26;2220599;80;20967;-84
2022/09/07 12:48:01;;;;;;;5.00;3.20;;;;;;;24.16;32.11;98999.12;2220724;80;21168;-86
2022/09/07 12:51:02;;;;;;;4.35;3.40;;;;;;;24.37;31.68;98993.43;2220888;80;21335;-85
2022/09/07 12:54:03;;;;;;;6.78;3.10;;;;;;;24.43;31.27;98990.04;2220554;80;20907;-85
2022/09/07 12:57:03;;;;;;;5.15;3.50;;;;;;;24.49;31.36;98991.58;2220317;80;21377;-82
2022/09/07 13:00:05;;;;;;;6.03;3.12;;;;;;;24.44;30.94;98982.91;2220741;80;20923;-86
2022/09/07 13:03:04;;;;;;;6.15;3.47;;;;;;;24.48;30.98;98991.18;2220998;80;20935;-84
2022/09/07 13:06:04;;;;;;;5.35;3.40;;;;;;;24.40;31.04;98987.97;2220987;80;20948;-85
2022/09/07 13:09:05;;;;;;;16.30;4.67;;;;;;;24.41;31.32;98980.36;2221910;80;20908;-88
2022/09/07 13:12:05;;;;;;;23.47;4.78;;;;;;;24.54;33.14;98974.05;2221956;80;21446;-86
2022/09/07 13:15:06;;;;;;;5.78;3.20;;;;;;;24.62;31.84;98975.91;2221384;80;20939;-87
2022/09/07 13:18:09;;;;;;;12.00;3.47;;;;;;;24.55;32.01;98980.65;2221370;80;20930;-82
2022/09/07 13:21:06;;;;;;;41.63;6.03;;;;;;;24.54;31.36;98981.58;2221335;80;21307;-86
2022/09/07 13:24:07;;;;;;;6.58;3.35;;;;;;;24.50;31.73;98979.98;2220142;80;20944;-87
2022/09/07 13:27:07;;;;;;;6.25;4.28;;;;;;;24.46;31.87;98975.70;2221357;80;20967;-85
2022/09/07 13:30:08;;;;;;;6.40;3.20;;;;;;;24.38;32.11;98974.69;2222149;80;21379;-87
2022/09/07 13:33:09;;;;;;;6.55;3.17;;;;;;;24.42;31.76;98978.09;2224453;80;20994;-85
2022/09/07 13:36:10;;;;;;;6.08;3.17;;;;;;;24.47;31.96;98982.77;2225945;80;20888;-86
2022/09/07 13:39:10;;;;;;;9.25;3.40;;;;;;;24.60;32.04;98977.31;2226028;80;20978;-85
2022/09/07 13:42:10;;;;;;;10.75;3.87;;;;;;;24.66;31.35;98975.72;2225098;80;21427;-83
2022/09/07 13:45:11;;;;;;;14.10;4.40;;;;;;;24.60;31.49;98967.97;2225703;80;20978;-84
2022/09/07 13:48:11;;;;;;;7.45;3.50;;;;;;;24.61;31.51;98964.37;2226037;80;21649;-84
2022/09/07 13:51:12;;;;;;;4.30;3.75;;;;;;;24.64;31.19;98960.70;2225586;80;20947;-83
2022/09/07 13:54:12;;;;;;;8.43;3.60;;;;;;;24.67;31.40;98952.09;2226099;80;20919;-83
2022/09/07 13:57:13;;;;;;;34.27;5.83;;;;;;;24.61;31.09;98951.03;2225942;80;20951;-84
2022/09/07 14:00:13;;;;;;;7.28;3.25;;;;;;;24.55;31.54;98944.63;2225618;80;20963;-83
2022/09/07 14:03:14;;;;;;;4.28;3.42;;;;;;;24.55;31.62;98947.76;2224895;80;20950;-81
2022/09/07 14:06:14;;;;;;;6.08;3.33;;;;;;;24.54;31.54;98949.56;2224621;80;20880;-85